Aprelevka, Russia
Current Conditions -  °F | °C
As of 12:30 PM on Sunday 26 Oct 2014 (Local Time) from UUWW Reporting Station
Clear Clear  
Wind Chill: 26°   Ceiling: Unl
Heat Index: 32°   Visibility: 6mi
Dew Point: 14°   Wind: 7mph
Humidity: 47%   Direction: 210°SSW
Pressure: 30.53"   Gusts: NA
Location:  55.54°N, 37.07°E
Report Text: UUWW 260930Z 21003MPS CAVOK 00/M10 Q1034 24190060 NOSIG
Loading
Personal Weather Stations






























Interactive Weather Map
Tropical Storm Tracking
New forecast layout! Learn more

10-Day Weather Forecast

Advertisements
Track Severe Weather on mobile